sensor_id;sensor_type;location;lat;lon;timestamp;temperature;humidity
29281;DHT22;25048;49.590;11.026;2023-03-05T00:01:12;2.80;99.90
29281;DHT22;25048;49.590;11.026;2023-03-05T00:03:39;2.80;99.90
29281;DHT22;25048;49.590;11.026;2023-03-05T00:06:07;2.80;99.90
29281;DHT22;25048;49.590;11.026;2023-03-05T00:08:35;2.80;99.90
29281;DHT22;25048;49.590;11.026;2023-03-05T00:11:05;2.80;99.90
29281;DHT22;25048;49.590;11.026;2023-03-05T00:13:34;2.70;99.90
29281;DHT22;25048;49.590;11.026;2023-03-05T00:16:04;2.70;99.90
29281;DHT22;25048;49.590;11.026;2023-03-05T00:18:32;2.70;99.90
29281;DHT22;25048;49.590;11.026;2023-03-05T00:20:59;2.70;99.90
29281;DHT22;25048;49.590;11.026;2023-03-05T00:23:27;2.80;99.90
29281;DHT22;25048;49.590;11.026;2023-03-05T00:25:54;2.70;99.90
29281;DHT22;25048;49.590;11.026;2023-03-05T00:28:22;2.70;99.90
29281;DHT22;25048;49.590;11.026;2023-03-05T00:30:49;2.70;99.90
29281;DHT22;25048;49.590;11.026;2023-03-05T00:33:17;2.70;99.90
29281;DHT22;25048;49.590;11.026;2023-03-05T00:35:45;2.80;99.90
29281;DHT22;25048;49.590;11.026;2023-03-05T00:38:13;2.80;99.90
29281;DHT22;25048;49.590;11.026;2023-03-05T00:40:41;2.70;99.90
29281;DHT22;25048;49.590;11.026;2023-03-05T00:43:09;2.80;99.90
29281;DHT22;25048;49.590;11.026;2023-03-05T00:45:36;2.80;99.90
29281;DHT22;25048;49.590;11.026;2023-03-05T00:48:04;2.70;99.90
29281;DHT22;25048;49.590;11.026;2023-03-05T00:50:31;2.70;99.90
29281;DHT22;25048;49.590;11.026;2023-03-05T00:52:59;2.70;99.90
29281;DHT22;25048;49.590;11.026;2023-03-05T00:55:26;2.60;99.90
29281;DHT22;25048;49.590;11.026;2023-03-05T00:57:54;2.60;99.90
29281;DHT22;25048;49.590;11.026;2023-03-05T01:00:21;2.60;99.90
29281;DHT22;25048;49.590;11.026;2023-03-05T01:02:49;2.60;99.90
29281;DHT22;25048;49.590;11.026;2023-03-05T01:05:17;2.60;99.90
29281;DHT22;25048;49.590;11.026;2023-03-05T01:07:44;2.50;99.90
29281;DHT22;25048;49.590;11.026;2023-03-05T01:10:12;2.50;99.90
29281;DHT22;25048;49.590;11.026;2023-03-05T01:12:39;2.50;99.90
29281;DHT22;25048;49.590;11.026;2023-03-05T01:15:07;2.50;99.90
29281;DHT22;25048;49.590;11.026;2023-03-05T01:17:34;2.50;99.90
29281;DHT22;25048;49.590;11.026;2023-03-05T01:20:02;2.50;99.90
29281;DHT22;25048;49.590;11.026;2023-03-05T01:22:30;2.50;99.90
29281;DHT22;25048;49.590;11.026;2023-03-05T01:24:57;2.50;99.90
29281;DHT22;25048;49.590;11.026;2023-03-05T01:27:25;2.60;99.90
29281;DHT22;25048;49.590;11.026;2023-03-05T01:29:52;2.60;99.90
29281;DHT22;25048;49.590;11.026;2023-03-05T01:32:20;2.70;99.90
29281;DHT22;25048;49.590;11.026;2023-03-05T01:34:47;2.70;99.90
29281;DHT22;25048;49.590;11.026;2023-03-05T01:37:15;2.70;99.90
29281;DHT22;25048;49.590;11.026;2023-03-05T01:39:43;2.70;99.90
29281;DHT22;25048;49.590;11.026;2023-03-05T01:42:10;2.70;99.90
29281;DHT22;25048;49.590;11.026;2023-03-05T01:44:38;2.60;99.90
29281;DHT22;25048;49.590;11.026;2023-03-05T01:47:05;2.60;99.90
29281;DHT22;25048;49.590;11.026;2023-03-05T01:49:38;2.60;99.90
29281;DHT22;25048;49.590;11.026;2023-03-05T01:52:16;2.60;99.90
29281;DHT22;25048;49.590;11.026;2023-03-05T01:54:47;2.60;99.90
29281;DHT22;25048;49.590;11.026;2023-03-05T01:57:39;2.60;99.90
29281;DHT22;25048;49.590;11.026;2023-03-05T01:59:47;2.60;99.90
29281;DHT22;25048;49.590;11.026;2023-03-05T02:02:17;2.50;99.90
29281;DHT22;25048;49.590;11.026;2023-03-05T02:05:36;2.50;99.90
29281;DHT22;25048;49.590;11.026;2023-03-05T02:07:20;2.40;99.90
29281;DHT22;25048;49.590;11.026;2023-03-05T02:09:48;2.40;99.90
29281;DHT22;25048;49.590;11.026;2023-03-05T02:12:16;2.40;99.90
29281;DHT22;25048;49.590;11.026;2023-03-05T02:14:46;2.40;99.90
29281;DHT22;25048;49.590;11.026;2023-03-05T02:17:15;2.40;99.90
29281;DHT22;25048;49.590;11.026;2023-03-05T02:19:48;2.50;99.90
29281;DHT22;25048;49.590;11.026;2023-03-05T02:22:17;2.50;99.90
29281;DHT22;25048;49.590;11.026;2023-03-05T02:24:45;2.50;99.90
29281;DHT22;25048;49.590;11.026;2023-03-05T02:27:12;2.60;99.90
29281;DHT22;25048;49.590;11.026;2023-03-05T02:29:44;2.50;99.90
29281;DHT22;25048;49.590;11.026;2023-03-05T02:32:12;2.50;99.90
29281;DHT22;25048;49.590;11.026;2023-03-05T02:34:39;2.50;99.90
29281;DHT22;25048;49.590;11.026;2023-03-05T02:37:07;2.40;99.90
29281;DHT22;25048;49.590;11.026;2023-03-05T02:39:36;2.50;99.90
29281;DHT22;25048;49.590;11.026;2023-03-05T02:42:03;2.40;99.90
29281;DHT22;25048;49.590;11.026;2023-03-05T02:44:31;2.50;99.90
29281;DHT22;25048;49.590;11.026;2023-03-05T02:46:59;2.40;99.90
29281;DHT22;25048;49.590;11.026;2023-03-05T02:49:26;2.40;99.90
29281;DHT22;25048;49.590;11.026;2023-03-05T02:51:54;2.40;99.90
29281;DHT22;25048;49.590;11.026;2023-03-05T02:54:22;2.40;99.90
29281;DHT22;25048;49.590;11.026;2023-03-05T02:56:49;2.40;99.90
29281;DHT22;25048;49.590;11.026;2023-03-05T02:59:17;2.40;99.90
29281;DHT22;25048;49.590;11.026;2023-03-05T03:01:44;2.40;99.90
29281;DHT22;25048;49.590;11.026;2023-03-05T03:04:12;2.40;99.90
29281;DHT22;25048;49.590;11.026;2023-03-05T03:06:39;2.40;99.90
29281;DHT22;25048;49.590;11.026;2023-03-05T03:09:07;2.40;99.90
29281;DHT22;25048;49.590;11.026;2023-03-05T03:11:34;2.30;99.90
29281;DHT22;25048;49.590;11.026;2023-03-05T03:14:02;2.40;99.90
29281;DHT22;25048;49.590;11.026;2023-03-05T03:16:29;2.40;99.90
29281;DHT22;25048;49.590;11.026;2023-03-05T03:18:57;2.40;99.90
29281;DHT22;25048;49.590;11.026;2023-03-05T03:21:25;2.40;99.90
29281;DHT22;25048;49.590;11.026;2023-03-05T03:23:52;2.40;99.90
29281;DHT22;25048;49.590;11.026;2023-03-05T03:26:20;2.50;99.90
29281;DHT22;25048;49.590;11.026;2023-03-05T03:28:47;2.50;99.90
29281;DHT22;25048;49.590;11.026;2023-03-05T03:31:15;2.50;99.90
29281;DHT22;25048;49.590;11.026;2023-03-05T03:33:43;2.50;99.90
29281;DHT22;25048;49.590;11.026;2023-03-05T03:36:11;2.60;99.90
29281;DHT22;25048;49.590;11.026;2023-03-05T03:38:39;2.60;99.90
29281;DHT22;25048;49.590;11.026;2023-03-05T03:41:07;2.60;99.90
29281;DHT22;25048;49.590;11.026;2023-03-05T03:43:35;2.60;99.90
29281;DHT22;25048;49.590;11.026;2023-03-05T03:46:06;2.60;99.90
29281;DHT22;25048;49.590;11.026;2023-03-05T03:48:34;2.60;99.90
29281;DHT22;25048;49.590;11.026;2023-03-05T03:51:04;2.50;99.90
29281;DHT22;25048;49.590;11.026;2023-03-05T03:53:32;2.50;99.90
29281;DHT22;25048;49.590;11.026;2023-03-05T03:55:59;2.40;99.90
29281;DHT22;25048;49.590;11.026;2023-03-05T03:58:27;2.40;99.90
29281;DHT22;25048;49.590;11.026;2023-03-05T04:00:54;2.30;99.90
29281;DHT22;25048;49.590;11.026;2023-03-05T04:03:22;2.30;99.90
29281;DHT22;25048;49.590;11.026;2023-03-05T04:05:49;2.30;99.90
29281;DHT22;25048;49.590;11.026;2023-03-05T04:08:17;2.30;99.90
29281;DHT22;25048;49.590;11.026;2023-03-05T04:10:44;2.20;99.90
29281;DHT22;25048;49.590;11.026;2023-03-05T04:13:12;2.20;99.90
29281;DHT22;25048;49.590;11.026;2023-03-05T04:15:39;2.20;99.90
29281;DHT22;25048;49.590;11.026;2023-03-05T04:18:08;2.20;99.90
29281;DHT22;25048;49.590;11.026;2023-03-05T04:20:35;2.20;99.90
29281;DHT22;25048;49.590;11.026;2023-03-05T04:23:03;2.30;99.90
29281;DHT22;25048;49.590;11.026;2023-03-05T04:25:30;2.30;99.90
29281;DHT22;25048;49.590;11.026;2023-03-05T04:27:58;2.30;99.90
29281;DHT22;25048;49.590;11.026;2023-03-05T04:30:25;2.20;99.90
29281;DHT22;25048;49.590;11.026;2023-03-05T04:32:53;2.20;99.90
29281;DHT22;25048;49.590;11.026;2023-03-05T04:35:20;2.20;99.90
29281;DHT22;25048;49.590;11.026;2023-03-05T04:37:48;2.20;99.90
29281;DHT22;25048;49.590;11.026;2023-03-05T04:40:16;2.30;99.90
29281;DHT22;25048;49.590;11.026;2023-03-05T04:42:43;2.20;99.90
29281;DHT22;25048;49.590;11.026;2023-03-05T04:45:11;2.20;99.90
29281;DHT22;25048;49.590;11.026;2023-03-05T04:47:39;2.20;99.90
29281;DHT22;25048;49.590;11.026;2023-03-05T04:50:07;2.20;99.90
29281;DHT22;25048;49.590;11.026;2023-03-05T04:52:38;2.20;99.90
29281;DHT22;25048;49.590;11.026;2023-03-05T04:55:06;2.30;99.90
29281;DHT22;25048;49.590;11.026;2023-03-05T04:57:35;2.30;99.90
29281;DHT22;25048;49.590;11.026;2023-03-05T05:00:05;2.30;99.90
29281;DHT22;25048;49.590;11.026;2023-03-05T05:02:33;2.30;99.90
29281;DHT22;25048;49.590;11.026;2023-03-05T05:05:00;2.30;99.90
29281;DHT22;25048;49.590;11.026;2023-03-05T05:07:28;2.30;99.90
29281;DHT22;25048;49.590;11.026;2023-03-05T05:09:57;2.30;99.90
29281;DHT22;25048;49.590;11.026;2023-03-05T05:12:29;2.20;99.90
29281;DHT22;25048;49.590;11.026;2023-03-05T05:14:57;2.30;99.90
29281;DHT22;25048;49.590;11.026;2023-03-05T05:17:25;2.20;99.90
29281;DHT22;25048;49.590;11.026;2023-03-05T05:19:53;2.20;99.90
29281;DHT22;25048;49.590;11.026;2023-03-05T05:22:20;2.20;99.90
29281;DHT22;25048;49.590;11.026;2023-03-05T05:24:48;2.20;99.90
29281;DHT22;25048;49.590;11.026;2023-03-05T05:27:15;2.20;99.90
29281;DHT22;25048;49.590;11.026;2023-03-05T05:29:43;2.20;99.90
29281;DHT22;25048;49.590;11.026;2023-03-05T05:32:12;2.20;99.90
29281;DHT22;25048;49.590;11.026;2023-03-05T05:34:39;2.20;99.90
29281;DHT22;25048;49.590;11.026;2023-03-05T05:37:07;2.20;99.90
29281;DHT22;25048;49.590;11.026;2023-03-05T05:39:35;2.20;99.90
29281;DHT22;25048;49.590;11.026;2023-03-05T05:42:02;2.20;99.90
29281;DHT22;25048;49.590;11.026;2023-03-05T05:44:30;2.20;99.90
29281;DHT22;25048;49.590;11.026;2023-03-05T05:46:59;2.20;99.90
29281;DHT22;25048;49.590;11.026;2023-03-05T05:49:27;2.10;99.90
29281;DHT22;25048;49.590;11.026;2023-03-05T05:51:54;2.10;99.90
29281;DHT22;25048;49.590;11.026;2023-03-05T05:54:23;2.10;99.90
29281;DHT22;25048;49.590;11.026;2023-03-05T05:56:50;2.20;99.90
29281;DHT22;25048;49.590;11.026;2023-03-05T05:59:18;2.20;99.90
29281;DHT22;25048;49.590;11.026;2023-03-05T06:01:45;2.20;99.90
29281;DHT22;25048;49.590;11.026;2023-03-05T06:04:13;2.20;99.90
29281;DHT22;25048;49.590;11.026;2023-03-05T06:06:40;2.20;99.90
29281;DHT22;25048;49.590;11.026;2023-03-05T06:09:08;2.20;99.90
29281;DHT22;25048;49.590;11.026;2023-03-05T06:11:37;2.20;99.90
29281;DHT22;25048;49.590;11.026;2023-03-05T06:14:04;2.20;99.90
29281;DHT22;25048;49.590;11.026;2023-03-05T06:16:34;2.20;99.90
29281;DHT22;25048;49.590;11.026;2023-03-05T06:19:01;2.30;99.90
29281;DHT22;25048;49.590;11.026;2023-03-05T06:21:31;2.30;99.90
29281;DHT22;25048;49.590;11.026;2023-03-05T06:23:59;2.30;99.90
29281;DHT22;25048;49.590;11.026;2023-03-05T06:26:27;2.30;99.90
29281;DHT22;25048;49.590;11.026;2023-03-05T06:28:54;2.30;99.90
29281;DHT22;25048;49.590;11.026;2023-03-05T06:31:24;2.20;99.90
29281;DHT22;25048;49.590;11.026;2023-03-05T06:33:54;2.20;99.90
29281;DHT22;25048;49.590;11.026;2023-03-05T06:36:23;2.20;99.90
29281;DHT22;25048;49.590;11.026;2023-03-05T06:38:51;2.20;99.90
29281;DHT22;25048;49.590;11.026;2023-03-05T06:41:21;2.20;99.90
29281;DHT22;25048;49.590;11.026;2023-03-05T06:43:49;2.20;99.90
29281;DHT22;25048;49.590;11.026;2023-03-05T06:46:25;2.20;99.90
29281;DHT22;25048;49.590;11.026;2023-03-05T06:48:55;2.20;99.90
29281;DHT22;25048;49.590;11.026;2023-03-05T06:51:26;2.30;99.90
29281;DHT22;25048;49.590;11.026;2023-03-05T06:53:54;2.30;99.90
29281;DHT22;25048;49.590;11.026;2023-03-05T06:56:23;2.30;99.90
29281;DHT22;25048;49.590;11.026;2023-03-05T06:58:51;2.30;99.90
29281;DHT22;25048;49.590;11.026;2023-03-05T07:01:19;2.30;99.90
29281;DHT22;25048;49.590;11.026;2023-03-05T07:03:51;2.40;99.90
29281;DHT22;25048;49.590;11.026;2023-03-05T07:06:20;2.50;99.90
29281;DHT22;25048;49.590;11.026;2023-03-05T07:08:49;2.50;99.90
29281;DHT22;25048;49.590;11.026;2023-03-05T07:11:18;2.60;99.90
29281;DHT22;25048;49.590;11.026;2023-03-05T07:13:46;2.70;99.90
29281;DHT22;25048;49.590;11.026;2023-03-05T07:16:16;2.80;99.90
29281;DHT22;25048;49.590;11.026;2023-03-05T07:18:44;2.80;99.90
29281;DHT22;25048;49.590;11.026;2023-03-05T07:21:14;3.00;99.90
29281;DHT22;25048;49.590;11.026;2023-03-05T07:23:43;3.10;99.90
29281;DHT22;25048;49.590;11.026;2023-03-05T07:26:10;3.20;99.90
29281;DHT22;25048;49.590;11.026;2023-03-05T07:28:38;3.20;99.90
29281;DHT22;25048;49.590;11.026;2023-03-05T07:31:11;3.30;99.90
29281;DHT22;25048;49.590;11.026;2023-03-05T07:33:36;3.40;99.90
29281;DHT22;25048;49.590;11.026;2023-03-05T07:36:09;3.40;99.90
29281;DHT22;25048;49.590;11.026;2023-03-05T07:38:37;3.50;99.90
29281;DHT22;25048;49.590;11.026;2023-03-05T07:41:07;3.50;99.90
29281;DHT22;25048;49.590;11.026;2023-03-05T07:43:35;3.60;99.90
29281;DHT22;25048;49.590;11.026;2023-03-05T07:46:04;3.70;99.90
29281;DHT22;25048;49.590;11.026;2023-03-05T07:48:32;3.70;99.90
29281;DHT22;25048;49.590;11.026;2023-03-05T07:51:06;3.80;99.90
29281;DHT22;25048;49.590;11.026;2023-03-05T07:53:30;3.80;99.90
29281;DHT22;25048;49.590;11.026;2023-03-05T07:55:57;3.90;99.90
29281;DHT22;25048;49.590;11.026;2023-03-05T07:58:25;4.00;99.90
29281;DHT22;25048;49.590;11.026;2023-03-05T08:00:53;4.10;99.90
29281;DHT22;25048;49.590;11.026;2023-03-05T08:03:21;4.20;99.90
29281;DHT22;25048;49.590;11.026;2023-03-05T08:05:48;4.20;99.90
29281;DHT22;25048;49.590;11.026;2023-03-05T08:08:16;4.20;99.90
29281;DHT22;25048;49.590;11.026;2023-03-05T08:10:44;4.30;99.90
29281;DHT22;25048;49.590;11.026;2023-03-05T08:13:11;4.30;99.90
29281;DHT22;25048;49.590;11.026;2023-03-05T08:15:39;4.30;99.90
29281;DHT22;25048;49.590;11.026;2023-03-05T08:18:06;4.30;99.90
29281;DHT22;25048;49.590;11.026;2023-03-05T08:20:36;4.40;99.90
29281;DHT22;25048;49.590;11.026;2023-03-05T08:23:04;4.40;99.90
29281;DHT22;25048;49.590;11.026;2023-03-05T08:25:32;4.50;99.90
29281;DHT22;25048;49.590;11.026;2023-03-05T08:27:59;4.60;99.90
29281;DHT22;25048;49.590;11.026;2023-03-05T08:30:27;4.60;99.90
29281;DHT22;25048;49.590;11.026;2023-03-05T08:32:55;4.60;99.90
29281;DHT22;25048;49.590;11.026;2023-03-05T08:35:22;4.60;99.90
29281;DHT22;25048;49.590;11.026;2023-03-05T08:37:50;4.70;99.90
29281;DHT22;25048;49.590;11.026;2023-03-05T08:40:17;4.70;99.90
29281;DHT22;25048;49.590;11.026;2023-03-05T08:42:45;4.80;99.90
29281;DHT22;25048;49.590;11.026;2023-03-05T08:45:13;4.80;99.90
29281;DHT22;25048;49.590;11.026;2023-03-05T08:47:40;4.80;99.90
29281;DHT22;25048;49.590;11.026;2023-03-05T08:50:08;4.70;99.90
29281;DHT22;25048;49.590;11.026;2023-03-05T08:52:36;4.70;99.90
29281;DHT22;25048;49.590;11.026;2023-03-05T08:55:04;4.70;99.90
29281;DHT22;25048;49.590;11.026;2023-03-05T08:57:32;4.60;99.90
29281;DHT22;25048;49.590;11.026;2023-03-05T08:59:59;4.60;99.90
29281;DHT22;25048;49.590;11.026;2023-03-05T09:02:26;4.50;99.90
29281;DHT22;25048;49.590;11.026;2023-03-05T09:04:54;4.40;99.90
29281;DHT22;25048;49.590;11.026;2023-03-05T09:07:21;4.30;99.90
29281;DHT22;25048;49.590;11.026;2023-03-05T09:09:49;4.20;99.90
29281;DHT22;25048;49.590;11.026;2023-03-05T09:12:16;4.20;99.90
29281;DHT22;25048;49.590;11.026;2023-03-05T09:14:44;4.20;99.90
29281;DHT22;25048;49.590;11.026;2023-03-05T09:17:11;4.10;99.90
29281;DHT22;25048;49.590;11.026;2023-03-05T09:19:39;4.00;99.90
29281;DHT22;25048;49.590;11.026;2023-03-05T09:22:06;3.90;99.90
29281;DHT22;25048;49.590;11.026;2023-03-05T09:24:34;3.90;99.90
29281;DHT22;25048;49.590;11.026;2023-03-05T09:27:01;3.80;99.90
29281;DHT22;25048;49.590;11.026;2023-03-05T09:29:29;3.80;99.90
29281;DHT22;25048;49.590;11.026;2023-03-05T09:31:56;3.80;99.90
29281;DHT22;25048;49.590;11.026;2023-03-05T09:34:24;3.80;99.90
29281;DHT22;25048;49.590;11.026;2023-03-05T09:36:51;3.80;99.90
29281;DHT22;25048;49.590;11.026;2023-03-05T09:39:19;3.80;99.90
29281;DHT22;25048;49.590;11.026;2023-03-05T09:42:06;3.80;99.90
29281;DHT22;25048;49.590;11.026;2023-03-05T09:44:44;3.80;99.90
29281;DHT22;25048;49.590;11.026;2023-03-05T09:53:19;4.20;99.90
29281;DHT22;25048;49.590;11.026;2023-03-05T09:55:51;4.30;99.90
29281;DHT22;25048;49.590;11.026;2023-03-05T09:58:28;4.40;99.90
29281;DHT22;25048;49.590;11.026;2023-03-05T10:00:59;4.40;99.90
29281;DHT22;25048;49.590;11.026;2023-03-05T10:09:11;4.60;99.90
29281;DHT22;25048;49.590;11.026;2023-03-05T10:11:55;4.70;99.90
29281;DHT22;25048;49.590;11.026;2023-03-05T10:14:29;4.70;99.90
29281;DHT22;25048;49.590;11.026;2023-03-05T10:17:04;4.70;99.90
29281;DHT22;25048;49.590;11.026;2023-03-05T10:20:03;4.80;99.90
29281;DHT22;25048;49.590;11.026;2023-03-05T10:22:41;4.90;99.90
29281;DHT22;25048;49.590;11.026;2023-03-05T10:25:22;5.00;99.90
29281;DHT22;25048;49.590;11.026;2023-03-05T10:27:51;5.00;99.90
29281;DHT22;25048;49.590;11.026;2023-03-05T10:30:44;5.10;99.90
29281;DHT22;25048;49.590;11.026;2023-03-05T10:33:37;5.20;99.90
29281;DHT22;25048;49.590;11.026;2023-03-05T10:36:24;5.20;99.90
29281;DHT22;25048;49.590;11.026;2023-03-05T10:44:55;5.50;99.90
29281;DHT22;25048;49.590;11.026;2023-03-05T10:47:43;5.60;99.90
29281;DHT22;25048;49.590;11.026;2023-03-05T10:50:22;5.60;99.90
29281;DHT22;25048;49.590;11.026;2023-03-05T10:55:32;5.70;99.90
29281;DHT22;25048;49.590;11.026;2023-03-05T10:58:01;5.70;99.90
29281;DHT22;25048;49.590;11.026;2023-03-05T11:00:29;5.70;99.90
29281;DHT22;25048;49.590;11.026;2023-03-05T11:03:05;5.80;99.90
29281;DHT22;25048;49.590;11.026;2023-03-05T11:05:42;5.70;99.90
29281;DHT22;25048;49.590;11.026;2023-03-05T11:08:33;5.60;99.90
29281;DHT22;25048;49.590;11.026;2023-03-05T11:16:34;5.40;99.90
29281;DHT22;25048;49.590;11.026;2023-03-05T11:19:25;5.30;99.90
29281;DHT22;25048;49.590;11.026;2023-03-05T11:22:14;5.30;99.90
29281;DHT22;25048;49.590;11.026;2023-03-05T11:24:40;5.40;99.90
29281;DHT22;25048;49.590;11.026;2023-03-05T11:27:31;5.30;99.90
29281;DHT22;25048;49.590;11.026;2023-03-05T11:29:59;5.30;99.90
29281;DHT22;25048;49.590;11.026;2023-03-05T11:32:28;5.30;99.90
29281;DHT22;25048;49.590;11.026;2023-03-05T11:34:57;5.30;99.90
29281;DHT22;25048;49.590;11.026;2023-03-05T11:37:30;5.40;99.90
29281;DHT22;25048;49.590;11.026;2023-03-05T11:40:18;5.60;99.90
29281;DHT22;25048;49.590;11.026;2023-03-05T11:42:43;5.70;99.90
29281;DHT22;25048;49.590;11.026;2023-03-05T11:45:16;6.00;99.90
29281;DHT22;25048;49.590;11.026;2023-03-05T11:47:52;6.20;99.90
29281;DHT22;25048;49.590;11.026;2023-03-05T11:50:29;6.20;99.90
29281;DHT22;25048;49.590;11.026;2023-03-05T11:53:05;6.40;99.90
29281;DHT22;25048;49.590;11.026;2023-03-05T11:55:48;6.40;99.90
29281;DHT22;25048;49.590;11.026;2023-03-05T12:01:00;6.70;99.90
29281;DHT22;25048;49.590;11.026;2023-03-05T12:03:31;6.80;99.90
29281;DHT22;25048;49.590;11.026;2023-03-05T12:08:45;6.90;99.90
29281;DHT22;25048;49.590;11.026;2023-03-05T12:11:21;7.00;99.90
29281;DHT22;25048;49.590;11.026;2023-03-05T12:13:49;7.10;99.90
29281;DHT22;25048;49.590;11.026;2023-03-05T12:16:32;7.00;99.90
29281;DHT22;25048;49.590;11.026;2023-03-05T12:21:47;6.80;99.90
29281;DHT22;25048;49.590;11.026;2023-03-05T12:29:52;6.70;99.90
29281;DHT22;25048;49.590;11.026;2023-03-05T12:35:25;6.70;99.90
29281;DHT22;25048;49.590;11.026;2023-03-05T12:37:57;6.60;99.90
29281;DHT22;25048;49.590;11.026;2023-03-05T12:40:32;6.50;99.90
29281;DHT22;25048;49.590;11.026;2023-03-05T12:43:05;6.50;99.90
29281;DHT22;25048;49.590;11.026;2023-03-05T12:45:42;6.40;99.90
29281;DHT22;25048;49.590;11.026;2023-03-05T12:50:47;6.20;99.90
29281;DHT22;25048;49.590;11.026;2023-03-05T12:53:18;6.10;99.90
29281;DHT22;25048;49.590;11.026;2023-03-05T12:56:15;6.00;99.90
29281;DHT22;25048;49.590;11.026;2023-03-05T12:59:21;5.90;99.90
29281;DHT22;25048;49.590;11.026;2023-03-05T13:01:53;5.80;99.90
29281;DHT22;25048;49.590;11.026;2023-03-05T13:04:22;5.70;99.90
29281;DHT22;25048;49.590;11.026;2023-03-05T13:07:01;5.60;99.90
29281;DHT22;25048;49.590;11.026;2023-03-05T13:09:31;5.50;99.90
29281;DHT22;25048;49.590;11.026;2023-03-05T13:12:03;5.40;99.90
29281;DHT22;25048;49.590;11.026;2023-03-05T13:19:51;5.30;99.90
29281;DHT22;25048;49.590;11.026;2023-03-05T13:22:24;5.40;99.90
29281;DHT22;25048;49.590;11.026;2023-03-05T13:25:20;5.50;99.90
29281;DHT22;25048;49.590;11.026;2023-03-05T13:27:48;5.60;99.90
29281;DHT22;25048;49.590;11.026;2023-03-05T13:30:25;5.60;99.90
29281;DHT22;25048;49.590;11.026;2023-03-05T13:32:54;5.60;99.90
29281;DHT22;25048;49.590;11.026;2023-03-05T13:35:22;5.70;99.90
29281;DHT22;25048;49.590;11.026;2023-03-05T13:37:50;5.80;99.90
29281;DHT22;25048;49.590;11.026;2023-03-05T13:40:26;5.90;99.90
29281;DHT22;25048;49.590;11.026;2023-03-05T13:42:54;6.10;99.90
29281;DHT22;25048;49.590;11.026;2023-03-05T13:45:26;6.10;99.90
29281;DHT22;25048;49.590;11.026;2023-03-05T13:47:59;6.20;99.90
29281;DHT22;25048;49.590;11.026;2023-03-05T13:50:38;6.30;99.90
29281;DHT22;25048;49.590;11.026;2023-03-05T13:53:21;6.30;99.90
29281;DHT22;25048;49.590;11.026;2023-03-05T13:55:49;6.40;99.90
29281;DHT22;25048;49.590;11.026;2023-03-05T13:58:49;6.30;99.90
29281;DHT22;25048;49.590;11.026;2023-03-05T14:01:30;6.20;99.90
29281;DHT22;25048;49.590;11.026;2023-03-05T14:04:07;6.10;99.90
29281;DHT22;25048;49.590;11.026;2023-03-05T14:06:40;6.00;99.90
29281;DHT22;25048;49.590;11.026;2023-03-05T14:09:15;6.00;99.90
29281;DHT22;25048;49.590;11.026;2023-03-05T14:11:39;5.90;99.90
29281;DHT22;25048;49.590;11.026;2023-03-05T14:14:08;5.90;99.90
29281;DHT22;25048;49.590;11.026;2023-03-05T14:16:37;5.90;99.90
29281;DHT22;25048;49.590;11.026;2023-03-05T14:19:04;6.00;99.90
29281;DHT22;25048;49.590;11.026;2023-03-05T14:21:45;6.00;99.90
29281;DHT22;25048;49.590;11.026;2023-03-05T14:24:21;5.90;99.90
29281;DHT22;25048;49.590;11.026;2023-03-05T14:26:53;5.90;99.90
29281;DHT22;25048;49.590;11.026;2023-03-05T14:29:25;5.80;99.90
29281;DHT22;25048;49.590;11.026;2023-03-05T14:31:56;5.70;99.90
29281;DHT22;25048;49.590;11.026;2023-03-05T14:34:39;5.60;99.90
29281;DHT22;25048;49.590;11.026;2023-03-05T14:39:59;5.50;99.90
29281;DHT22;25048;49.590;11.026;2023-03-05T14:42:32;5.40;99.90
29281;DHT22;25048;49.590;11.026;2023-03-05T14:45:13;5.40;99.90
29281;DHT22;25048;49.590;11.026;2023-03-05T14:47:37;5.30;99.90
29281;DHT22;25048;49.590;11.026;2023-03-05T14:50:06;5.30;99.90
29281;DHT22;25048;49.590;11.026;2023-03-05T14:52:33;5.20;99.90
29281;DHT22;25048;49.590;11.026;2023-03-05T14:55:01;5.20;99.90
29281;DHT22;25048;49.590;11.026;2023-03-05T14:57:31;5.20;99.90
29281;DHT22;25048;49.590;11.026;2023-03-05T14:59:58;5.20;99.90
29281;DHT22;25048;49.590;11.026;2023-03-05T15:02:26;5.10;99.90
29281;DHT22;25048;49.590;11.026;2023-03-05T15:04:54;5.10;99.90
29281;DHT22;25048;49.590;11.026;2023-03-05T15:07:25;5.00;99.90
29281;DHT22;25048;49.590;11.026;2023-03-05T15:09:52;5.00;99.90
29281;DHT22;25048;49.590;11.026;2023-03-05T15:12:19;5.00;99.90
29281;DHT22;25048;49.590;11.026;2023-03-05T15:14:51;5.00;99.90
29281;DHT22;25048;49.590;11.026;2023-03-05T15:19:58;5.00;99.90
29281;DHT22;25048;49.590;11.026;2023-03-05T15:22:26;4.90;99.90
29281;DHT22;25048;49.590;11.026;2023-03-05T15:24:53;4.90;99.90
29281;DHT22;25048;49.590;11.026;2023-03-05T15:27:21;4.90;99.90
29281;DHT22;25048;49.590;11.026;2023-03-05T15:29:51;4.80;99.90
29281;DHT22;25048;49.590;11.026;2023-03-05T15:32:20;4.80;99.90
29281;DHT22;25048;49.590;11.026;2023-03-05T15:34:47;4.70;99.90
29281;DHT22;25048;49.590;11.026;2023-03-05T15:37:15;4.70;99.90
29281;DHT22;25048;49.590;11.026;2023-03-05T15:39:42;4.70;99.90
29281;DHT22;25048;49.590;11.026;2023-03-05T15:42:10;4.60;99.90
29281;DHT22;25048;49.590;11.026;2023-03-05T15:44:37;4.50;99.90
29281;DHT22;25048;49.590;11.026;2023-03-05T15:47:05;4.40;99.90
29281;DHT22;25048;49.590;11.026;2023-03-05T15:49:33;4.40;99.90
29281;DHT22;25048;49.590;11.026;2023-03-05T15:52:01;4.40;99.90
29281;DHT22;25048;49.590;11.026;2023-03-05T15:54:28;4.30;99.90
29281;DHT22;25048;49.590;11.026;2023-03-05T15:56:56;4.30;99.90
29281;DHT22;25048;49.590;11.026;2023-03-05T15:59:23;4.30;99.90
29281;DHT22;25048;49.590;11.026;2023-03-05T16:01:52;4.30;99.90
29281;DHT22;25048;49.590;11.026;2023-03-05T16:04:19;4.30;99.90
29281;DHT22;25048;49.590;11.026;2023-03-05T16:06:48;4.30;99.90
29281;DHT22;25048;49.590;11.026;2023-03-05T16:09:17;4.20;99.90
29281;DHT22;25048;49.590;11.026;2023-03-05T16:11:46;4.10;99.90
29281;DHT22;25048;49.590;11.026;2023-03-05T16:14:18;4.10;99.90
29281;DHT22;25048;49.590;11.026;2023-03-05T16:16:45;4.10;99.90
29281;DHT22;25048;49.590;11.026;2023-03-05T16:19:15;4.00;99.90
29281;DHT22;25048;49.590;11.026;2023-03-05T16:21:44;4.00;99.90
29281;DHT22;25048;49.590;11.026;2023-03-05T16:24:12;4.00;99.90
29281;DHT22;25048;49.590;11.026;2023-03-05T16:26:40;4.00;99.90
29281;DHT22;25048;49.590;11.026;2023-03-05T16:29:10;4.00;99.90
29281;DHT22;25048;49.590;11.026;2023-03-05T16:31:37;4.00;99.90
29281;DHT22;25048;49.590;11.026;2023-03-05T16:34:07;3.90;99.90
29281;DHT22;25048;49.590;11.026;2023-03-05T16:36:34;4.00;99.90
29281;DHT22;25048;49.590;11.026;2023-03-05T16:39:03;3.90;99.90
29281;DHT22;25048;49.590;11.026;2023-03-05T16:41:31;3.90;99.90
29281;DHT22;25048;49.590;11.026;2023-03-05T16:43:59;3.90;99.90